River Of Ponds, Canada
Current Conditions -  °F | °C
As of 8:00 PM on Wednesday 26 Nov 2014 (Local Time) from CWDH Reporting Station
Scattered Clouds Scattered Clouds  
Wind Chill: 25°   Ceiling: Unl
Heat Index: 32°   Visibility: 9mi
Dew Point: 18°   Wind: 9mph
Humidity: 55%   Direction: 300°WNW
Pressure: 30.07"   Gusts: NA
Location:  50.53°N, 57.38°W
Report Text: CWDH 262300Z AUTO 30008KT 9SM SCT030 00/M08 A3007 RMK SLP186 T00021078 WSI/SWOB
Loading
Personal Weather Stations






























Interactive Weather Map New forecast layout! Learn more

10-Day Weather Forecast

Advertisements
Track Severe Weather on mobile